createdAt,value
2023-05-06T00:01:03.625Z,88.41
2023-05-06T00:03:07.233Z,89.12
2023-05-06T00:05:12.387Z,88.65
2023-05-06T00:07:16.888Z,89.08
2023-05-06T00:09:21.149Z,89.06
2023-05-06T00:11:24.591Z,88.79
2023-05-06T00:13:28.014Z,89.20
2023-05-06T00:15:32.319Z,89.25
2023-05-06T00:17:36.041Z,89.65
2023-05-06T00:19:39.801Z,89.81
2023-05-06T00:21:44.505Z,90.22
2023-05-06T00:23:47.836Z,90.48
2023-05-06T00:25:51.200Z,90.89
2023-05-06T00:27:54.562Z,90.93
2023-05-06T00:29:58.657Z,90.95
2023-05-06T00:32:02.095Z,91.03
2023-05-06T00:34:05.615Z,91.25
2023-05-06T00:36:09.924Z,91.11
2023-05-06T00:38:15.604Z,91.22
2023-05-06T00:40:19.278Z,91.27
2023-05-06T00:42:23.538Z,91.34
2023-05-06T00:44:27.023Z,91.67
2023-05-06T00:46:30.569Z,91.74
2023-05-06T00:48:34.036Z,91.78
2023-05-06T00:50:40.383Z,91.82
2023-05-06T00:52:43.963Z,92.15
2023-05-06T00:54:48.814Z,91.88
2023-05-06T00:56:52.531Z,91.71
2023-05-06T00:58:56.112Z,92.00
2023-05-06T01:01:01.750Z,91.97
2023-05-06T01:03:05.621Z,91.91
2023-05-06T01:05:11.227Z,92.12
2023-05-06T01:07:27.529Z,91.76
2023-05-06T01:09:40.377Z,92.07
2023-05-06T01:11:50.407Z,92.20
2023-05-06T01:14:06.248Z,92.20
2023-05-06T01:16:13.764Z,92.32
2023-05-06T01:18:19.179Z,92.17
2023-05-06T01:20:23.016Z,92.09
2023-05-06T01:22:27.941Z,92.11
2023-05-06T01:24:40.243Z,91.90
2023-05-06T01:26:44.033Z,91.74
2023-05-06T01:28:47.574Z,91.73
2023-05-06T01:31:00.400Z,91.78
2023-05-06T01:33:09.353Z,92.11
2023-05-06T01:35:18.880Z,92.48
2023-05-06T01:37:29.144Z,93.05
2023-05-06T01:39:34.726Z,93.16
2023-05-06T01:41:41.790Z,93.36
2023-05-06T01:43:49.282Z,93.31
2023-05-06T01:45:55.213Z,93.05
2023-05-06T01:48:00.429Z,92.99
2023-05-06T01:50:04.494Z,92.72
2023-05-06T01:52:09.745Z,92.55
2023-05-06T01:54:13.177Z,92.64
2023-05-06T01:56:17.471Z,92.35
2023-05-06T01:58:22.291Z,92.25
2023-05-06T02:00:26.504Z,92.33
2023-05-06T02:02:30.770Z,92.11
2023-05-06T02:04:34.536Z,92.05
2023-05-06T02:06:38.055Z,92.01
2023-05-06T02:08:43.042Z,92.00
2023-05-06T02:10:50.432Z,92.02
2023-05-06T02:12:55.237Z,91.88
2023-05-06T02:15:04.158Z,91.88
2023-05-06T02:17:08.284Z,91.61
2023-05-06T02:19:12.305Z,91.44
2023-05-06T02:21:15.900Z,91.32
2023-05-06T02:23:19.322Z,91.12
2023-05-06T02:25:23.389Z,91.12
2023-05-06T02:27:26.874Z,91.05
2023-05-06T02:29:32.032Z,90.72
2023-05-06T02:31:37.014Z,90.85
2023-05-06T02:33:40.538Z,90.64
2023-05-06T02:35:44.088Z,90.81
2023-05-06T02:37:47.622Z,90.65
2023-05-06T02:39:53.871Z,90.81
2023-05-06T02:41:57.363Z,90.64
2023-05-06T02:44:00.781Z,90.59
2023-05-06T02:46:04.432Z,90.46
2023-05-06T02:48:09.339Z,90.19
2023-05-06T02:50:13.490Z,90.57
2023-05-06T02:52:17.033Z,90.25
2023-05-06T02:54:20.706Z,90.21
2023-05-06T02:56:24.249Z,90.22
2023-05-06T02:58:27.663Z,89.58
2023-05-06T03:00:31.475Z,90.25
2023-05-06T03:02:35.237Z,90.07
2023-05-06T03:04:40.315Z,90.02
2023-05-06T03:06:44.053Z,89.87
2023-05-06T03:08:47.560Z,89.85
2023-05-06T03:10:51.297Z,89.84
2023-05-06T03:12:57.691Z,89.79
2023-05-06T03:15:02.350Z,89.74
2023-05-06T03:17:05.948Z,89.88
2023-05-06T03:19:12.549Z,89.73
2023-05-06T03:21:18.492Z,89.73
2023-05-06T03:23:23.877Z,90.03
2023-05-06T03:25:27.842Z,89.96
2023-05-06T03:27:32.370Z,89.94
2023-05-06T03:29:40.578Z,89.98
2023-05-06T03:31:45.873Z,89.75
2023-05-06T03:33:49.842Z,90.02
2023-05-06T03:35:53.770Z,90.33
2023-05-06T03:37:59.005Z,90.57
2023-05-06T03:40:09.000Z,90.44
2023-05-06T03:42:12.756Z,90.79
2023-05-06T03:44:16.394Z,90.85
2023-05-06T03:46:20.618Z,91.61
2023-05-06T03:48:24.408Z,91.30
2023-05-06T03:50:29.216Z,91.20
2023-05-06T03:52:32.889Z,91.44
2023-05-06T03:54:38.858Z,91.24
2023-05-06T03:56:43.500Z,91.25
2023-05-06T03:58:47.563Z,91.50
2023-05-06T04:00:51.274Z,92.04
2023-05-06T04:02:57.996Z,91.95
2023-05-06T04:05:11.047Z,92.11
2023-05-06T04:07:14.879Z,92.34
2023-05-06T04:09:18.453Z,92.28
2023-05-06T04:11:23.829Z,92.65
2023-05-06T04:13:28.073Z,92.42
2023-05-06T04:15:35.258Z,92.31
2023-05-06T04:17:43.229Z,92.34
2023-05-06T04:19:47.336Z,92.11
2023-05-06T04:21:50.956Z,92.06
2023-05-06T04:24:00.746Z,92.25
2023-05-06T04:26:11.111Z,92.31
2023-05-06T04:28:18.863Z,92.45
2023-05-06T04:30:27.138Z,92.41
2023-05-06T04:32:31.332Z,92.58
2023-05-06T04:34:36.358Z,92.64
2023-05-06T04:36:41.937Z,92.88
2023-05-06T04:39:08.746Z,93.27
2023-05-06T04:41:15.788Z,93.21
2023-05-06T04:43:21.090Z,93.49
2023-05-06T04:45:29.807Z,93.55
2023-05-06T04:47:34.791Z,93.64
2023-05-06T04:49:39.097Z,93.72
2023-05-06T04:51:43.475Z,93.70
2023-05-06T04:53:47.690Z,93.82
2023-05-06T04:55:51.177Z,93.97
2023-05-06T04:57:55.448Z,93.76
2023-05-06T05:00:00.399Z,93.64
2023-05-06T05:02:03.973Z,93.80
2023-05-06T05:04:07.715Z,93.79
2023-05-06T05:06:13.201Z,93.57
2023-05-06T05:08:16.874Z,93.58
2023-05-06T05:10:20.462Z,93.61
2023-05-06T05:12:26.111Z,93.40
2023-05-06T05:14:30.586Z,93.47
2023-05-06T05:16:36.128Z,93.78
2023-05-06T05:18:40.860Z,93.89
2023-05-06T05:20:51.530Z,94.01
2023-05-06T05:22:56.321Z,94.04
2023-05-06T05:24:59.914Z,94.26
2023-05-06T05:27:03.566Z,94.39
2023-05-06T05:29:08.033Z,94.46
2023-05-06T05:31:12.389Z,94.81
2023-05-06T05:33:17.383Z,94.73
2023-05-06T05:35:21.990Z,95.03
2023-05-06T05:37:28.373Z,95.33
2023-05-06T05:39:32.132Z,95.31
2023-05-06T05:41:35.753Z,95.61
2023-05-06T05:43:39.271Z,95.50
2023-05-06T05:45:43.111Z,95.88
2023-05-06T05:47:48.487Z,96.28
2023-05-06T05:49:54.695Z,96.08
2023-05-06T05:51:59.685Z,96.28
2023-05-06T05:54:04.225Z,96.17
2023-05-06T05:56:08.748Z,95.74
2023-05-06T05:58:13.361Z,96.10
2023-05-06T06:00:19.128Z,96.24
2023-05-06T06:02:22.674Z,96.33
2023-05-06T06:04:26.356Z,96.70
2023-05-06T06:06:31.405Z,96.71
2023-05-06T06:08:34.936Z,97.00
2023-05-06T06:10:38.998Z,97.28
2023-05-06T06:12:48.914Z,97.28
2023-05-06T06:14:56.589Z,97.53
2023-05-06T06:17:02.751Z,97.56
2023-05-06T06:19:06.929Z,97.56
2023-05-06T06:21:10.471Z,97.88
2023-05-06T06:23:15.319Z,97.98
2023-05-06T06:25:18.760Z,98.24
2023-05-06T06:27:22.187Z,98.11
2023-05-06T06:29:25.714Z,98.03
2023-05-06T06:31:30.430Z,98.11
2023-05-06T06:33:33.938Z,98.16
2023-05-06T06:35:37.397Z,98.16
2023-05-06T06:37:40.911Z,98.23
2023-05-06T06:39:45.634Z,98.27
2023-05-06T06:41:49.010Z,98.34
2023-05-06T06:43:52.360Z,98.14
2023-05-06T06:46:00.804Z,97.90
2023-05-06T06:48:04.866Z,97.49
2023-05-06T06:50:09.916Z,97.27
2023-05-06T06:52:13.531Z,96.65
2023-05-06T06:54:17.463Z,96.88
2023-05-06T06:56:23.063Z,96.23
2023-05-06T06:58:26.508Z,96.49
2023-05-06T07:00:30.129Z,96.08
2023-05-06T07:02:33.606Z,95.66
2023-05-06T07:04:37.074Z,95.76
2023-05-06T07:06:40.576Z,95.71
2023-05-06T07:08:44.059Z,95.61
2023-05-06T07:10:47.465Z,95.65
2023-05-06T07:12:52.875Z,95.24
2023-05-06T07:14:56.336Z,95.13
2023-05-06T07:17:00.741Z,95.73
2023-05-06T07:19:04.414Z,95.55
2023-05-06T07:21:07.809Z,95.35
2023-05-06T07:23:11.190Z,95.09
2023-05-06T07:25:14.883Z,94.56
2023-05-06T07:27:18.451Z,94.46
2023-05-06T07:29:23.281Z,94.59
2023-05-06T07:31:26.888Z,94.46
2023-05-06T07:33:30.504Z,94.36
2023-05-06T07:35:33.844Z,94.14
2023-05-06T07:37:37.329Z,93.62
2023-05-06T07:39:40.723Z,93.53
2023-05-06T07:41:44.164Z,92.89
2023-05-06T07:43:47.788Z,92.68
2023-05-06T07:45:52.753Z,92.23
2023-05-06T07:47:56.928Z,91.53
2023-05-06T07:50:00.927Z,91.22
2023-05-06T07:52:04.685Z,90.53
2023-05-06T07:54:08.239Z,90.05
2023-05-06T07:56:12.136Z,88.75
2023-05-06T07:58:15.777Z,88.77
2023-05-06T08:00:19.371Z,88.23
2023-05-06T08:02:24.530Z,87.97
2023-05-06T08:04:28.024Z,87.35
2023-05-06T08:06:32.255Z,87.37
2023-05-06T08:08:35.641Z,87.04
2023-05-06T08:10:39.046Z,86.13
2023-05-06T08:12:42.772Z,84.84
2023-05-06T08:14:46.648Z,84.50
2023-05-06T08:16:51.470Z,84.73
2023-05-06T08:18:56.187Z,84.73
2023-05-06T08:20:59.596Z,85.41
2023-05-06T08:23:02.909Z,84.83
2023-05-06T08:25:07.390Z,84.55
2023-05-06T08:27:10.855Z,84.31
2023-05-06T08:29:14.510Z,84.96
2023-05-06T08:31:17.982Z,84.72
2023-05-06T08:33:21.338Z,83.81
2023-05-06T08:35:28.129Z,82.60
2023-05-06T08:37:31.809Z,82.26
2023-05-06T08:39:35.201Z,81.74
2023-05-06T08:41:40.806Z,80.98
2023-05-06T08:43:46.897Z,80.09
2023-05-06T08:45:50.609Z,78.94
2023-05-06T08:47:54.298Z,77.95
2023-05-06T08:49:57.651Z,76.59
2023-05-06T08:52:06.012Z,75.96
2023-05-06T08:54:11.051Z,76.00
2023-05-06T08:56:16.295Z,75.75
2023-05-06T08:58:20.279Z,75.44
2023-05-06T09:00:23.616Z,75.21
2023-05-06T09:02:27.437Z,75.20
2023-05-06T09:04:30.881Z,74.78
2023-05-06T09:06:34.674Z,74.67
2023-05-06T09:08:39.409Z,73.99
2023-05-06T09:10:44.758Z,73.80
2023-05-06T09:12:48.104Z,73.76
2023-05-06T09:14:51.992Z,72.79
2023-05-06T09:16:55.376Z,72.06
2023-05-06T09:19:00.269Z,71.96
2023-05-06T09:21:05.544Z,71.37
2023-05-06T09:23:09.749Z,71.07
2023-05-06T09:25:14.838Z,71.15
2023-05-06T09:27:19.378Z,71.20
2023-05-06T09:29:25.271Z,70.98
2023-05-06T09:31:32.818Z,69.65
2023-05-06T09:33:37.330Z,69.16
2023-05-06T09:35:42.711Z,69.31
2023-05-06T09:37:46.162Z,68.83
2023-05-06T09:39:49.704Z,67.34
2023-05-06T09:41:54.659Z,67.12
2023-05-06T09:43:59.092Z,66.76
2023-05-06T09:46:02.888Z,66.43
2023-05-06T09:48:09.310Z,66.05
2023-05-06T09:50:15.281Z,65.50
2023-05-06T09:52:19.469Z,65.88
2023-05-06T09:54:24.025Z,63.67
2023-05-06T09:56:28.892Z,62.85
2023-05-06T09:58:34.456Z,63.82
2023-05-06T10:00:38.082Z,63.69
2023-05-06T10:02:42.178Z,63.78
2023-05-06T10:04:46.038Z,63.28
2023-05-06T10:06:52.161Z,62.78
2023-05-06T10:08:56.767Z,61.67
2023-05-06T10:11:01.902Z,61.96
2023-05-06T10:13:05.378Z,62.82
2023-05-06T10:15:11.459Z,62.01
2023-05-06T10:17:16.038Z,61.66
2023-05-06T10:19:25.630Z,61.95
2023-05-06T10:21:34.215Z,60.89
2023-05-06T10:23:44.321Z,60.58
2023-05-06T10:25:52.066Z,60.72
2023-05-06T10:27:55.440Z,60.83
2023-05-06T10:30:00.957Z,60.29
2023-05-06T10:32:08.187Z,60.33
2023-05-06T10:34:11.831Z,59.88
2023-05-06T10:36:20.404Z,59.32
2023-05-06T10:38:27.943Z,59.20
2023-05-06T10:40:31.684Z,59.59
2023-05-06T10:42:35.410Z,60.18
2023-05-06T10:45:03.818Z,59.06
2023-05-06T10:47:11.138Z,58.42
2023-05-06T10:49:18.350Z,58.27
2023-05-06T10:51:27.109Z,56.27
2023-05-06T10:53:58.044Z,56.75
2023-05-06T10:56:09.892Z,56.25
2023-05-06T10:58:15.860Z,56.42
2023-05-06T11:00:20.149Z,55.88
2023-05-06T11:02:25.217Z,55.54
2023-05-06T11:04:30.317Z,56.45
2023-05-06T11:06:35.549Z,55.37
2023-05-06T11:08:39.911Z,54.04
2023-05-06T11:10:43.337Z,54.84
2023-05-06T11:12:49.006Z,53.83
2023-05-06T11:14:52.671Z,53.63
2023-05-06T11:16:57.836Z,53.70
2023-05-06T11:19:03.920Z,53.71
2023-05-06T11:21:38.827Z,52.75
2023-05-06T11:24:07.277Z,52.80
2023-05-06T11:26:11.541Z,52.52
2023-05-06T11:28:16.082Z,52.21
2023-05-06T11:30:19.408Z,51.96
2023-05-06T11:32:28.929Z,51.85
2023-05-06T11:34:35.415Z,51.77
2023-05-06T11:36:47.213Z,52.29
2023-05-06T11:38:52.364Z,51.32
2023-05-06T11:40:56.279Z,51.39
2023-05-06T11:43:11.153Z,51.91
2023-05-06T11:45:14.444Z,50.24
2023-05-06T11:47:21.910Z,50.60
2023-05-06T11:49:26.766Z,49.73
2023-05-06T11:51:32.495Z,51.21
2023-05-06T11:53:36.085Z,50.99
2023-05-06T11:55:39.732Z,49.72
2023-05-06T11:57:46.162Z,49.20
2023-05-06T11:59:54.943Z,48.74
2023-05-06T12:01:59.767Z,48.20
2023-05-06T12:04:03.331Z,47.56
2023-05-06T12:06:06.987Z,48.87
2023-05-06T12:08:23.665Z,47.81
2023-05-06T12:10:29.800Z,47.46
2023-05-06T12:12:33.462Z,46.43
2023-05-06T12:14:38.096Z,46.21
2023-05-06T12:16:45.048Z,45.83
2023-05-06T12:18:48.554Z,45.56
2023-05-06T12:20:54.605Z,45.82
2023-05-06T12:23:07.755Z,45.04
2023-05-06T12:25:16.845Z,45.04
2023-05-06T12:27:33.511Z,43.84
2023-05-06T12:29:36.987Z,43.31
2023-05-06T12:31:40.403Z,43.21
2023-05-06T12:33:48.965Z,43.80
2023-05-06T12:35:54.664Z,43.11
2023-05-06T12:38:08.091Z,44.00
2023-05-06T12:40:18.868Z,44.32
2023-05-06T12:42:23.026Z,43.64
2023-05-06T12:44:37.588Z,44.23
2023-05-06T12:46:51.848Z,43.96
2023-05-06T12:48:59.396Z,42.94
2023-05-06T12:51:18.632Z,42.92
2023-05-06T12:53:33.158Z,43.50
2023-05-06T12:55:39.604Z,42.18
2023-05-06T12:57:42.962Z,41.65
2023-05-06T12:59:46.660Z,41.71
2023-05-06T13:01:50.212Z,42.95
2023-05-06T13:03:53.652Z,42.55
2023-05-06T13:05:57.100Z,43.11
2023-05-06T13:08:00.998Z,43.78
2023-05-06T13:10:06.111Z,43.67
2023-05-06T13:12:10.819Z,44.22
2023-05-06T13:14:14.515Z,44.54
2023-05-06T13:16:18.218Z,44.75
2023-05-06T13:18:22.109Z,44.48
2023-05-06T13:20:25.675Z,44.63
2023-05-06T13:22:29.228Z,45.01
2023-05-06T13:24:33.284Z,44.86
2023-05-06T13:26:37.443Z,45.16
2023-05-06T13:28:42.510Z,44.89
2023-05-06T13:30:46.059Z,45.14
2023-05-06T13:32:49.485Z,44.86
2023-05-06T13:34:52.854Z,45.76
2023-05-06T13:36:56.759Z,46.01
2023-05-06T13:39:00.568Z,46.54
2023-05-06T13:41:03.943Z,46.87
2023-05-06T13:43:07.369Z,46.71
2023-05-06T13:45:12.493Z,46.38
2023-05-06T13:47:16.479Z,46.98
2023-05-06T13:49:19.963Z,47.22
2023-05-06T13:51:23.845Z,47.14
2023-05-06T13:53:27.187Z,47.43
2023-05-06T13:55:30.588Z,47.70
2023-05-06T13:57:33.953Z,47.14
2023-05-06T13:59:37.390Z,47.63
2023-05-06T14:01:43.987Z,48.14
2023-05-06T14:03:47.443Z,49.20
2023-05-06T14:05:51.234Z,49.50
2023-05-06T14:07:54.617Z,49.49
2023-05-06T14:09:58.463Z,48.97
2023-05-06T14:12:02.907Z,48.70
2023-05-06T14:14:06.298Z,49.30
2023-05-06T14:16:09.720Z,50.33
2023-05-06T14:18:14.420Z,50.45
2023-05-06T14:20:17.830Z,51.86
2023-05-06T14:22:21.201Z,57.17
2023-05-06T14:24:24.516Z,63.19
2023-05-06T14:26:27.970Z,67.21
2023-05-06T14:28:31.426Z,70.22
2023-05-06T14:30:35.645Z,74.25
2023-05-06T14:32:39.067Z,76.74
2023-05-06T14:34:43.813Z,77.38
2023-05-06T14:36:47.205Z,77.42
2023-05-06T14:38:50.515Z,80.35
2023-05-06T14:40:53.925Z,82.10
2023-05-06T14:42:57.420Z,83.65
2023-05-06T14:45:00.728Z,85.07
2023-05-06T14:47:04.042Z,85.64
2023-05-06T14:49:07.562Z,87.26
2023-05-06T14:51:12.288Z,88.15
2023-05-06T14:53:15.731Z,88.79
2023-05-06T14:55:20.227Z,88.87
2023-05-06T14:57:23.890Z,88.53
2023-05-06T14:59:27.341Z,88.28
2023-05-06T15:01:32.230Z,87.94
2023-05-06T15:03:36.292Z,87.33
2023-05-06T15:05:39.691Z,86.60
2023-05-06T15:07:44.352Z,86.22
2023-05-06T15:09:47.756Z,85.98
2023-05-06T15:11:51.074Z,85.63
2023-05-06T15:13:55.471Z,85.11
2023-05-06T15:15:58.895Z,84.53
2023-05-06T15:18:02.287Z,84.06
2023-05-06T15:20:08.593Z,83.55
2023-05-06T15:22:11.927Z,83.26
2023-05-06T15:24:16.625Z,82.91
2023-05-06T15:26:19.982Z,82.70
2023-05-06T15:28:24.695Z,82.71
2023-05-06T15:30:28.133Z,83.40
2023-05-06T15:32:31.846Z,83.83
2023-05-06T15:34:35.271Z,84.46
2023-05-06T15:36:38.765Z,84.89
2023-05-06T15:39:00.880Z,84.97
2023-05-06T15:41:06.115Z,84.99
2023-05-06T15:43:09.811Z,84.99
2023-05-06T15:45:13.746Z,84.99
2023-05-06T15:47:17.388Z,84.91
2023-05-06T15:51:27.377Z,85.55
2023-05-06T15:53:30.927Z,85.42
2023-05-06T15:55:41.637Z,85.76
2023-05-06T15:57:49.958Z,85.99
2023-05-06T15:59:53.522Z,85.44
2023-05-06T16:02:24.697Z,85.32
2023-05-06T16:04:21.641Z,85.24
2023-05-06T16:06:25.074Z,84.96
2023-05-06T16:08:28.571Z,85.17
2023-05-06T16:10:31.853Z,85.01
2023-05-06T16:12:35.189Z,84.91
2023-05-06T16:14:39.905Z,84.55
2023-05-06T16:16:43.284Z,84.72
2023-05-06T16:18:46.698Z,84.99
2023-05-06T16:20:49.970Z,85.56
2023-05-06T16:22:53.758Z,86.09
2023-05-06T16:24:57.473Z,86.91
2023-05-06T16:27:00.996Z,87.78
2023-05-06T16:29:04.446Z,88.22
2023-05-06T16:31:09.266Z,88.37
2023-05-06T16:33:13.209Z,88.56
2023-05-06T16:35:17.333Z,88.43
2023-05-06T16:37:20.728Z,88.12
2023-05-06T16:39:24.077Z,87.85
2023-05-06T16:41:27.429Z,88.14
2023-05-06T16:43:30.902Z,88.26
2023-05-06T16:45:34.267Z,88.38
2023-05-06T16:47:39.233Z,88.28
2023-05-06T16:49:42.614Z,88.03
2023-05-06T16:51:45.956Z,87.88
2023-05-06T16:53:49.301Z,87.54
2023-05-06T16:55:52.676Z,87.04
2023-05-06T16:57:56.128Z,86.17
2023-05-06T16:59:59.576Z,86.27
2023-05-06T17:02:02.996Z,85.90
2023-05-06T17:04:07.717Z,86.11
2023-05-06T17:06:11.467Z,85.24
2023-05-06T17:08:16.154Z,85.18
2023-05-06T17:10:20.827Z,84.77
2023-05-06T17:12:24.164Z,83.41
2023-05-06T17:14:28.125Z,83.07
2023-05-06T17:16:31.576Z,82.48
2023-05-06T17:18:34.980Z,82.65
2023-05-06T17:22:45.906Z,81.98
2023-05-06T17:24:51.128Z,81.81
2023-05-06T17:26:54.440Z,81.91
2023-05-06T17:28:58.017Z,81.79
2023-05-06T17:31:01.638Z,81.39
2023-05-06T17:33:05.235Z,80.99
2023-05-06T17:35:09.566Z,80.82
2023-05-06T17:37:14.441Z,80.94
2023-05-06T17:39:17.982Z,80.39
2023-05-06T17:41:21.344Z,80.61
2023-05-06T17:43:24.678Z,80.56
2023-05-06T17:45:28.476Z,80.95
2023-05-06T17:47:32.265Z,81.47
2023-05-06T17:49:35.702Z,81.72
2023-05-06T17:51:40.800Z,82.11
2023-05-06T17:53:45.648Z,82.42
2023-05-06T17:55:49.193Z,82.76
2023-05-06T17:57:52.847Z,83.07
2023-05-06T17:59:56.282Z,83.21
2023-05-06T18:02:00.295Z,83.19
2023-05-06T18:04:03.844Z,83.25
2023-05-06T18:06:07.633Z,82.87
2023-05-06T18:08:10.956Z,83.08
2023-05-06T18:10:15.677Z,82.75
2023-05-06T18:12:19.104Z,82.53
2023-05-06T18:14:22.498Z,82.41
2023-05-06T18:16:25.997Z,82.01
2023-05-06T18:18:29.697Z,81.75
2023-05-06T18:20:34.736Z,81.56
2023-05-06T18:22:39.032Z,81.53
2023-05-06T18:24:42.380Z,81.80
2023-05-06T18:26:47.055Z,82.19
2023-05-06T18:28:50.690Z,82.28
2023-05-06T18:30:54.033Z,82.14
2023-05-06T18:32:57.429Z,82.07
2023-05-06T18:35:00.998Z,81.93
2023-05-06T18:37:04.626Z,81.75
2023-05-06T18:39:08.819Z,82.12
2023-05-06T18:41:12.101Z,82.15
2023-05-06T18:43:16.823Z,82.32
2023-05-06T18:45:20.260Z,82.28
2023-05-06T18:47:25.579Z,82.63
2023-05-06T18:49:30.673Z,82.88
2023-05-06T18:51:33.997Z,82.96
2023-05-06T18:53:37.950Z,82.63
2023-05-06T18:55:41.245Z,82.23
2023-05-06T18:57:44.612Z,82.38
2023-05-06T18:59:49.285Z,82.29
2023-05-06T19:01:52.839Z,82.28
2023-05-06T19:03:56.718Z,82.26
2023-05-06T19:06:02.407Z,82.45
2023-05-06T19:08:07.354Z,82.33
2023-05-06T19:10:11.346Z,82.18
2023-05-06T19:12:15.087Z,82.30
2023-05-06T19:14:18.449Z,82.48
2023-05-06T19:16:23.304Z,82.54
2023-05-06T19:18:26.874Z,82.51
2023-05-06T19:20:30.389Z,82.96
2023-05-06T19:22:33.892Z,83.16
2023-05-06T19:24:37.383Z,83.04
2023-05-06T19:26:40.954Z,83.21
2023-05-06T19:28:44.304Z,83.04
2023-05-06T19:30:48.497Z,82.83
2023-05-06T19:32:54.817Z,82.71
2023-05-06T19:35:07.641Z,82.72
2023-05-06T19:37:11.295Z,82.74
2023-05-06T19:39:16.282Z,82.74
2023-05-06T19:41:19.623Z,82.87
2023-05-06T19:43:24.446Z,83.23
2023-05-06T19:45:28.052Z,83.21
2023-05-06T19:47:31.746Z,83.51
2023-05-06T19:49:36.428Z,84.11
2023-05-06T19:51:39.761Z,84.20
2023-05-06T19:53:43.080Z,84.37
2023-05-06T19:55:46.584Z,84.49
2023-05-06T19:57:50.475Z,84.97
2023-05-06T19:59:54.196Z,85.37
2023-05-06T20:02:00.677Z,85.70
2023-05-06T20:04:04.352Z,86.05
2023-05-06T20:06:09.304Z,85.99
2023-05-06T20:08:12.859Z,86.02
2023-05-06T20:10:16.271Z,86.06
2023-05-06T20:12:19.605Z,86.10
2023-05-06T20:14:22.934Z,85.98
2023-05-06T20:16:26.443Z,86.23
2023-05-06T20:18:31.776Z,86.23
2023-05-06T20:20:36.020Z,86.33
2023-05-06T20:22:41.582Z,86.28
2023-05-06T20:24:45.711Z,86.59
2023-05-06T20:26:49.080Z,86.60
2023-05-06T20:28:53.165Z,86.46
2023-05-06T20:30:59.563Z,86.59
2023-05-06T20:33:03.017Z,86.74
2023-05-06T20:35:07.396Z,86.85
2023-05-06T20:37:10.764Z,86.91
2023-05-06T20:39:15.436Z,86.90
2023-05-06T20:41:18.709Z,86.66
2023-05-06T20:43:22.038Z,86.70
2023-05-06T20:45:25.617Z,86.68
2023-05-06T20:47:31.472Z,86.54
2023-05-06T20:49:34.854Z,86.83
2023-05-06T20:51:38.315Z,87.01
2023-05-06T20:53:42.781Z,87.15
2023-05-06T20:55:47.608Z,86.94
2023-05-06T20:57:51.125Z,86.89
2023-05-06T20:59:56.021Z,87.16
2023-05-06T21:01:59.494Z,87.53
2023-05-06T21:04:04.689Z,87.84
2023-05-06T21:06:08.485Z,88.09
2023-05-06T21:08:12.470Z,88.12
2023-05-06T21:10:15.850Z,87.95
2023-05-06T21:12:20.680Z,87.96
2023-05-06T21:14:24.792Z,87.71
2023-05-06T21:16:28.240Z,87.63
2023-05-06T21:18:31.677Z,87.58
2023-05-06T21:20:35.124Z,87.59
2023-05-06T21:22:38.426Z,87.43
2023-05-06T21:24:41.780Z,87.66
2023-05-06T21:26:45.246Z,87.64
2023-05-06T21:28:52.008Z,87.27
2023-05-06T21:30:55.353Z,87.37
2023-05-06T21:32:58.790Z,87.22
2023-05-06T21:35:03.686Z,87.09
2023-05-06T21:37:07.028Z,87.09
2023-05-06T21:39:12.627Z,87.13
2023-05-06T21:41:16.584Z,87.03
2023-05-06T21:43:19.920Z,87.16
2023-05-06T21:45:24.581Z,87.12
2023-05-06T21:47:28.093Z,87.07
2023-05-06T21:49:31.574Z,87.01
2023-05-06T21:51:37.576Z,87.23
2023-05-06T21:53:41.317Z,87.00
2023-05-06T21:55:44.623Z,86.97
2023-05-06T21:57:47.892Z,86.90
2023-05-06T21:59:52.054Z,86.86
2023-05-06T22:01:56.792Z,86.61
2023-05-06T22:04:00.474Z,86.97
2023-05-06T22:06:04.267Z,86.62
2023-05-06T22:08:07.663Z,86.68
2023-05-06T22:10:11.719Z,86.67
2023-05-06T22:12:15.479Z,86.75
2023-05-06T22:14:21.915Z,86.56
2023-05-06T22:16:27.981Z,86.64
2023-05-06T22:18:32.910Z,86.58
2023-05-06T22:20:37.302Z,86.44
2023-05-06T22:22:40.731Z,86.27
2023-05-06T22:24:44.047Z,86.29
2023-05-06T22:26:47.380Z,86.32
2023-05-06T22:28:50.985Z,86.44
2023-05-06T22:30:54.273Z,86.37
2023-05-06T22:32:57.659Z,86.23
2023-05-06T22:35:02.388Z,86.52
2023-05-06T22:37:09.425Z,86.78
2023-05-06T22:39:13.196Z,86.89
2023-05-06T22:41:18.097Z,86.74
2023-05-06T22:43:21.378Z,86.68
2023-05-06T22:45:24.645Z,86.59
2023-05-06T22:47:28.184Z,86.59
2023-05-06T22:49:32.794Z,86.63
2023-05-06T22:51:37.855Z,86.57
2023-05-06T22:53:41.171Z,86.48
2023-05-06T22:55:45.358Z,86.80
2023-05-06T22:57:49.871Z,86.75
2023-05-06T22:59:53.248Z,86.72
2023-05-06T23:01:56.702Z,86.58
2023-05-06T23:04:00.476Z,86.59
2023-05-06T23:06:05.968Z,86.52
2023-05-06T23:08:10.866Z,86.21
2023-05-06T23:10:14.160Z,86.13
2023-05-06T23:12:17.455Z,86.25
2023-05-06T23:14:20.816Z,86.16
2023-05-06T23:16:24.213Z,86.17
2023-05-06T23:18:27.465Z,86.03
2023-05-06T23:20:30.831Z,86.23
2023-05-06T23:22:34.300Z,85.96
2023-05-06T23:24:39.045Z,85.96
2023-05-06T23:26:42.356Z,85.95
2023-05-06T23:28:45.819Z,85.92
2023-05-06T23:30:49.325Z,85.96
2023-05-06T23:32:52.748Z,85.86
2023-05-06T23:34:56.178Z,86.04
2023-05-06T23:36:59.498Z,85.96
2023-05-06T23:39:03.005Z,86.14
2023-05-06T23:41:08.361Z,86.28
2023-05-06T23:43:11.762Z,86.24
2023-05-06T23:45:15.225Z,86.15
2023-05-06T23:47:18.964Z,86.15
2023-05-06T23:49:22.397Z,86.31
2023-05-06T23:51:26.527Z,86.52
2023-05-06T23:53:29.853Z,86.95
2023-05-06T23:55:33.320Z,87.18
2023-05-06T23:57:38.158Z,87.45
2023-05-06T23:59:41.608Z,87.22
